Austin, TX (78746)

07:06 CDT le 27 septembre 2016 (GMT -0500)
Camelot | | Change Station

Alt. 925 ft 30.29 °N, 97.83 °W | Updated 12 seconds ago

Overcast
Couvert
65.9 ° F
Paraît 65.9 ° F
N
0.0
Vent Variable Vent de ENE
Gusts 0.0 mph

Aujourd'hui
Haut(e) -- | Bas -- ° F
--% Risque de précip.
Hier
Haut(e) -- | Bas -- ° F
Precip. -- pouce
Pression 30.07 pouce
Visibilité 10.0 Miles terrestres
Nuages Nuageux 2100 ft
Couvert 3600 ft
Point de rosée 63 ° F
Humidité 91%
Précipitations 0.00 pouce
Profondeur de la couche neigeuse Non disponible.
7:22 AM 7:20 PM
Lune descendante, 12% visible
METAR KATT 271151Z AUTO 35004KT 10SM BKN021 OVC036 20/17 A3009 RMK AO2 SLP182 70018 T02000167 10200 20194 56003
Pression 30.07 pouce
Visibilité 10.0 Miles terrestres
Nuages Nuageux 2100 ft
Couvert 3600 ft
Point de rosée 63 ° F
Humidité 91%
Précipitations 0.00 pouce
Profondeur de la couche neigeuse Non disponible.
7:22 AM 7:20 PM
Lune descendante, 12% visible
METAR KATT 271151Z AUTO 35004KT 10SM BKN021 OVC036 20/17 A3009 RMK AO2 SLP182 70018 T02000167 10200 20194 56003

10-Day Weather Forecast

Almanac

Astronomie

Sep. 27, 2016 Lever Coucher
Temps réel
Crépuscule civil
Crépuscule nautique
Crépuscule astronomique
Lune
Durée de lumière visible
Longueur du jour
Tomorrow will be .
, % of the Moon is Illuminated

Extrêmes aujourd'hui

State Highs State Lows

Community

WunderPhotos

Upload Photos

1,942,068 Photos téléchargées !

WunderBlog® & News

Nearby

Qualité de l'air

  Qualité de l'air Indice de la qualité de l'air Polluant
Not available.

Épaisseur de neige

Station Depth Altitude

Activité sismique

Ville Distance Mag. Time & Date
Minimum magnitude displayed is 2.5.

Températures des eaux côtières

Lieu Température

Stations

Stations météo à proximité

Emplacement de la station Température Refroidissement éolien Point de rosée Humidité Vent Precip. Alt. Mise à jour Type
                   

Watches & Warnings

There are currently no watches in effect.